sensor_id;sensor_type;location;lat;lon;timestamp;pressure;altitude;pressure_sealevel;temperature;humidity
48652;BME280;34442;52.362;-1.302;2023-09-18T00:00:44;98980.94;;;18.25;100.00
48652;BME280;34442;52.362;-1.302;2023-09-18T00:03:12;98980.94;;;18.25;100.00
48652;BME280;34442;52.362;-1.302;2023-09-18T00:05:38;98981.25;;;18.23;100.00
48652;BME280;34442;52.362;-1.302;2023-09-18T00:08:03;98971.69;;;18.26;100.00
48652;BME280;34442;52.362;-1.302;2023-09-18T00:10:29;98960.81;;;18.26;100.00
48652;BME280;34442;52.362;-1.302;2023-09-18T00:12:56;98951.03;;;18.25;100.00
48652;BME280;34442;52.362;-1.302;2023-09-18T00:15:22;98945.28;;;18.26;100.00
48652;BME280;34442;52.362;-1.302;2023-09-18T00:17:50;98931.75;;;18.21;100.00
48652;BME280;34442;52.362;-1.302;2023-09-18T00:20:16;98925.75;;;18.24;100.00
48652;BME280;34442;52.362;-1.302;2023-09-18T00:22:43;98914.06;;;18.24;100.00
48652;BME280;34442;52.362;-1.302;2023-09-18T00:25:08;98903.41;;;18.27;100.00
48652;BME280;34442;52.362;-1.302;2023-09-18T00:27:37;98900.94;;;18.26;100.00
48652;BME280;34442;52.362;-1.302;2023-09-18T00:30:03;98891.75;;;18.22;100.00
48652;BME280;34442;52.362;-1.302;2023-09-18T00:32:29;98885.59;;;18.16;100.00
48652;BME280;34442;52.362;-1.302;2023-09-18T00:34:56;98886.31;;;18.22;100.00
48652;BME280;34442;52.362;-1.302;2023-09-18T00:37:25;98890.94;;;18.21;100.00
48652;BME280;34442;52.362;-1.302;2023-09-18T00:39:50;98899.69;;;18.18;100.00
48652;BME280;34442;52.362;-1.302;2023-09-18T00:42:15;98892.06;;;18.20;100.00
48652;BME280;34442;52.362;-1.302;2023-09-18T00:44:43;98886.97;;;18.14;100.00
48652;BME280;34442;52.362;-1.302;2023-09-18T00:47:09;98870.06;;;18.17;100.00
48652;BME280;34442;52.362;-1.302;2023-09-18T00:49:37;98864.06;;;18.20;100.00
48652;BME280;34442;52.362;-1.302;2023-09-18T00:52:07;98865.16;;;18.19;100.00
48652;BME280;34442;52.362;-1.302;2023-09-18T00:54:34;98853.44;;;18.18;100.00
48652;BME280;34442;52.362;-1.302;2023-09-18T00:57:01;98860.81;;;18.18;100.00
48652;BME280;34442;52.362;-1.302;2023-09-18T00:59:27;98865.44;;;18.17;100.00
48652;BME280;34442;52.362;-1.302;2023-09-18T01:01:53;98865.44;;;18.17;100.00
48652;BME280;34442;52.362;-1.302;2023-09-18T01:04:19;98863.28;;;18.14;100.00
48652;BME280;34442;52.362;-1.302;2023-09-18T01:06:45;98857.81;;;18.19;100.00
48652;BME280;34442;52.362;-1.302;2023-09-18T01:09:11;98864.06;;;18.20;100.00
48652;BME280;34442;52.362;-1.302;2023-09-18T01:14:42;98844.13;;;18.24;100.00
48652;BME280;34442;52.362;-1.302;2023-09-18T01:17:09;98830.31;;;18.21;100.00
48652;BME280;34442;52.362;-1.302;2023-09-18T01:19:40;98828.38;;;18.21;100.00
48652;BME280;34442;52.362;-1.302;2023-09-18T01:22:08;98833.81;;;18.21;100.00
48652;BME280;34442;52.362;-1.302;2023-09-18T01:24:35;98834.94;;;18.20;100.00
48652;BME280;34442;52.362;-1.302;2023-09-18T01:27:02;98836.03;;;18.19;100.00
48652;BME280;34442;52.362;-1.302;2023-09-18T01:29:29;98836.41;;;18.13;100.00
48652;BME280;34442;52.362;-1.302;2023-09-18T01:31:54;98842.41;;;18.09;100.00
48652;BME280;34442;52.362;-1.302;2023-09-18T01:34:22;98840.59;;;18.05;100.00
48652;BME280;34442;52.362;-1.302;2023-09-18T01:36:51;98836.03;;;18.00;100.00
48652;BME280;34442;52.362;-1.302;2023-09-18T01:39:18;98837.16;;;17.99;100.00
48652;BME280;34442;52.362;-1.302;2023-09-18T01:41:45;98832.50;;;18.00;100.00
48652;BME280;34442;52.362;-1.302;2023-09-18T01:44:11;98839.06;;;17.99;100.00
48652;BME280;34442;52.362;-1.302;2023-09-18T01:46:37;98854.56;;;17.98;100.00
48652;BME280;34442;52.362;-1.302;2023-09-18T01:49:03;98836.47;;;17.89;100.00
48652;BME280;34442;52.362;-1.302;2023-09-18T01:51:33;98831.75;;;17.75;100.00
48652;BME280;34442;52.362;-1.302;2023-09-18T01:53:59;98824.06;;;17.82;100.00
48652;BME280;34442;52.362;-1.302;2023-09-18T01:56:28;98805.44;;;17.90;100.00
48652;BME280;34442;52.362;-1.302;2023-09-18T01:58:53;98788.31;;;17.89;100.00
48652;BME280;34442;52.362;-1.302;2023-09-18T02:01:19;98794.28;;;17.91;100.00
48652;BME280;34442;52.362;-1.302;2023-09-18T02:03:44;98789.50;;;17.83;100.00
48652;BME280;34442;52.362;-1.302;2023-09-18T02:06:11;98783.38;;;17.72;100.00
48652;BME280;34442;52.362;-1.302;2023-09-18T02:08:36;98779.63;;;17.68;100.00
48652;BME280;34442;52.362;-1.302;2023-09-18T02:11:02;98782.19;;;17.59;100.00
48652;BME280;34442;52.362;-1.302;2023-09-18T02:13:29;98782.25;;;17.54;100.00
48652;BME280;34442;52.362;-1.302;2023-09-18T02:15:55;98778.81;;;17.49;100.00
48652;BME280;34442;52.362;-1.302;2023-09-18T02:18:21;98783.47;;;17.43;100.00
48652;BME280;34442;52.362;-1.302;2023-09-18T02:20:47;98780.50;;;17.45;100.00
48652;BME280;34442;52.362;-1.302;2023-09-18T02:23:17;98774.53;;;17.43;100.00
48652;BME280;34442;52.362;-1.302;2023-09-18T02:25:44;98779.38;;;17.46;100.00
48652;BME280;34442;52.362;-1.302;2023-09-18T02:28:09;98771.47;;;17.49;100.00
48652;BME280;34442;52.362;-1.302;2023-09-18T02:30:35;98759.50;;;17.50;100.00
48652;BME280;34442;52.362;-1.302;2023-09-18T02:33:00;98754.84;;;17.51;100.00
48652;BME280;34442;52.362;-1.302;2023-09-18T02:35:30;98745.91;;;17.50;100.00
48652;BME280;34442;52.362;-1.302;2023-09-18T02:37:56;98736.41;;;17.48;100.00
48652;BME280;34442;52.362;-1.302;2023-09-18T02:40:21;98732.09;;;17.47;100.00
48652;BME280;34442;52.362;-1.302;2023-09-18T02:42:47;98727.75;;;17.46;100.00
48652;BME280;34442;52.362;-1.302;2023-09-18T02:45:12;98722.59;;;17.44;100.00
48652;BME280;34442;52.362;-1.302;2023-09-18T02:47:37;98720.72;;;17.45;100.00
48652;BME280;34442;52.362;-1.302;2023-09-18T02:50:06;98709.84;;;17.45;100.00
48652;BME280;34442;52.362;-1.302;2023-09-18T02:52:32;98698.75;;;17.41;100.00
48652;BME280;34442;52.362;-1.302;2023-09-18T02:54:57;98690.16;;;17.34;100.00
48652;BME280;34442;52.362;-1.302;2023-09-18T02:57:23;98689.94;;;17.30;100.00
48652;BME280;34442;52.362;-1.302;2023-09-18T02:59:48;98688.31;;;17.29;100.00
48652;BME280;34442;52.362;-1.302;2023-09-18T03:02:14;98686.41;;;17.30;100.00
48652;BME280;34442;52.362;-1.302;2023-09-18T03:04:39;98687.53;;;17.29;100.00
48652;BME280;34442;52.362;-1.302;2023-09-18T03:07:05;98685.97;;;17.23;100.00
48652;BME280;34442;52.362;-1.302;2023-09-18T03:09:30;98680.59;;;17.18;100.00
48652;BME280;34442;52.362;-1.302;2023-09-18T03:11:56;98675.47;;;17.16;100.00
48652;BME280;34442;52.362;-1.302;2023-09-18T03:14:21;98668.16;;;17.11;100.00
48652;BME280;34442;52.362;-1.302;2023-09-18T03:16:47;98666.06;;;17.08;100.00
48652;BME280;34442;52.362;-1.302;2023-09-18T03:19:12;98650.34;;;17.05;100.00
48652;BME280;34442;52.362;-1.302;2023-09-18T03:21:38;98638.16;;;17.03;100.00
48652;BME280;34442;52.362;-1.302;2023-09-18T03:24:03;98645.00;;;17.00;100.00
48652;BME280;34442;52.362;-1.302;2023-09-18T03:26:29;98642.63;;;16.94;100.00
48652;BME280;34442;52.362;-1.302;2023-09-18T03:28:54;98646.13;;;16.94;100.00
48652;BME280;34442;52.362;-1.302;2023-09-18T03:31:20;98652.16;;;16.91;100.00
48652;BME280;34442;52.362;-1.302;2023-09-18T03:33:45;98646.75;;;16.91;100.00
48652;BME280;34442;52.362;-1.302;2023-09-18T03:36:11;98646.22;;;16.89;100.00
48652;BME280;34442;52.362;-1.302;2023-09-18T03:38:37;98647.88;;;16.85;100.00
48652;BME280;34442;52.362;-1.302;2023-09-18T03:41:02;98652.81;;;16.83;100.00
48652;BME280;34442;52.362;-1.302;2023-09-18T03:43:28;98667.75;;;16.80;100.00
48652;BME280;34442;52.362;-1.302;2023-09-18T03:45:53;98669.94;;;16.78;100.00
48652;BME280;34442;52.362;-1.302;2023-09-18T03:48:18;98653.16;;;16.76;100.00
48652;BME280;34442;52.362;-1.302;2023-09-18T03:50:47;98655.91;;;16.71;100.00
48652;BME280;34442;52.362;-1.302;2023-09-18T03:53:12;98665.41;;;16.69;100.00
48652;BME280;34442;52.362;-1.302;2023-09-18T03:55:38;98659.50;;;16.67;100.00
48652;BME280;34442;52.362;-1.302;2023-09-18T03:58:04;98654.06;;;16.67;100.00
48652;BME280;34442;52.362;-1.302;2023-09-18T04:00:30;98664.31;;;16.70;100.00
48652;BME280;34442;52.362;-1.302;2023-09-18T04:02:55;98658.38;;;16.68;100.00
48652;BME280;34442;52.362;-1.302;2023-09-18T04:05:21;98654.56;;;16.69;100.00
48652;BME280;34442;52.362;-1.302;2023-09-18T04:07:46;98658.66;;;16.66;100.00
48652;BME280;34442;52.362;-1.302;2023-09-18T04:10:12;98642.38;;;16.66;100.00
48652;BME280;34442;52.362;-1.302;2023-09-18T04:12:44;98639.66;;;16.66;100.00
48652;BME280;34442;52.362;-1.302;2023-09-18T04:15:15;98641.56;;;16.66;100.00
48652;BME280;34442;52.362;-1.302;2023-09-18T04:17:40;98628.00;;;16.66;100.00
48652;BME280;34442;52.362;-1.302;2023-09-18T04:20:06;98626.41;;;16.65;100.00
48652;BME280;34442;52.362;-1.302;2023-09-18T04:22:32;98640.75;;;16.65;100.00
48652;BME280;34442;52.362;-1.302;2023-09-18T04:24:57;98644.03;;;16.62;100.00
48652;BME280;34442;52.362;-1.302;2023-09-18T04:27:22;98641.63;;;16.60;100.00
48652;BME280;34442;52.362;-1.302;2023-09-18T04:29:48;98641.13;;;16.58;100.00
48652;BME280;34442;52.362;-1.302;2023-09-18T04:32:13;98641.63;;;16.60;100.00
48652;BME280;34442;52.362;-1.302;2023-09-18T04:34:38;98641.13;;;16.58;100.00
48652;BME280;34442;52.362;-1.302;2023-09-18T04:37:04;98645.72;;;16.58;100.00
48652;BME280;34442;52.362;-1.302;2023-09-18T04:39:29;98644.91;;;16.57;100.00
48652;BME280;34442;52.362;-1.302;2023-09-18T04:41:55;98634.88;;;16.58;100.00
48652;BME280;34442;52.362;-1.302;2023-09-18T04:44:20;98636.50;;;16.59;100.00
48652;BME280;34442;52.362;-1.302;2023-09-18T04:46:45;98634.88;;;16.58;100.00
48652;BME280;34442;52.362;-1.302;2023-09-18T04:49:11;98644.13;;;16.57;100.00
48652;BME280;34442;52.362;-1.302;2023-09-18T04:51:38;98643.00;;;16.58;100.00
48652;BME280;34442;52.362;-1.302;2023-09-18T04:54:06;98643.88;;;16.53;100.00
48652;BME280;34442;52.362;-1.302;2023-09-18T04:56:32;98639.56;;;16.52;100.00
48652;BME280;34442;52.362;-1.302;2023-09-18T04:58:58;98630.31;;;16.53;100.00
48652;BME280;34442;52.362;-1.302;2023-09-18T05:01:23;98641.47;;;16.52;100.00
48652;BME280;34442;52.362;-1.302;2023-09-18T05:03:50;98631.72;;;16.51;100.00
48652;BME280;34442;52.362;-1.302;2023-09-18T05:06:16;98638.75;;;16.52;100.00
48652;BME280;34442;52.362;-1.302;2023-09-18T05:08:43;98635.22;;;16.51;100.00
48652;BME280;34442;52.362;-1.302;2023-09-18T05:11:09;98634.69;;;16.49;100.00
48652;BME280;34442;52.362;-1.302;2023-09-18T05:13:34;98633.66;;;16.45;100.00
48652;BME280;34442;52.362;-1.302;2023-09-18T05:15:59;98641.28;;;16.43;100.00
48652;BME280;34442;52.362;-1.302;2023-09-18T05:18:26;98629.09;;;16.41;100.00
48652;BME280;34442;52.362;-1.302;2023-09-18T05:20:51;98630.16;;;16.45;100.00
48652;BME280;34442;52.362;-1.302;2023-09-18T05:23:17;98632.06;;;16.44;100.00
48652;BME280;34442;52.362;-1.302;2023-09-18T05:25:43;98633.16;;;16.43;100.00
48652;BME280;34442;52.362;-1.302;2023-09-18T05:28:09;98636.13;;;16.42;100.00
48652;BME280;34442;52.362;-1.302;2023-09-18T05:30:35;98627.50;;;16.40;100.00
48652;BME280;34442;52.362;-1.302;2023-09-18T05:33:04;98629.66;;;16.37;100.00
48652;BME280;34442;52.362;-1.302;2023-09-18T05:35:36;98621.53;;;16.37;100.00
48652;BME280;34442;52.362;-1.302;2023-09-18T05:38:04;98627.03;;;16.32;100.00
48652;BME280;34442;52.362;-1.302;2023-09-18T05:40:31;98627.03;;;16.32;100.00
48652;BME280;34442;52.362;-1.302;2023-09-18T05:42:56;98630.84;;;16.31;100.00
48652;BME280;34442;52.362;-1.302;2023-09-18T05:45:22;98637.63;;;16.29;100.00
48652;BME280;34442;52.362;-1.302;2023-09-18T05:47:48;98628.41;;;16.30;100.00
48652;BME280;34442;52.362;-1.302;2023-09-18T05:50:15;98625.97;;;16.28;100.00
48652;BME280;34442;52.362;-1.302;2023-09-18T05:52:51;98629.00;;;16.27;100.00
48652;BME280;34442;52.362;-1.302;2023-09-18T05:55:16;98629.06;;;16.22;100.00
48652;BME280;34442;52.362;-1.302;2023-09-18T05:57:42;98638.00;;;16.22;100.00
48652;BME280;34442;52.362;-1.302;2023-09-18T06:00:08;98644.50;;;16.21;100.00
48652;BME280;34442;52.362;-1.302;2023-09-18T06:02:41;98644.28;;;16.18;100.00
48652;BME280;34442;52.362;-1.302;2023-09-18T06:05:07;98637.81;;;16.13;100.00
48652;BME280;34442;52.362;-1.302;2023-09-18T06:07:39;98635.91;;;16.14;100.00
48652;BME280;34442;52.362;-1.302;2023-09-18T06:10:05;98642.41;;;16.13;100.00
48652;BME280;34442;52.362;-1.302;2023-09-18T06:12:30;98634.59;;;16.06;100.00
48652;BME280;34442;52.362;-1.302;2023-09-18T06:14:56;98635.72;;;16.05;100.00
48652;BME280;34442;52.362;-1.302;2023-09-18T06:17:21;98638.69;;;16.04;100.00
48652;BME280;34442;52.362;-1.302;2023-09-18T06:19:47;98638.69;;;16.04;100.00
48652;BME280;34442;52.362;-1.302;2023-09-18T06:22:13;98639.78;;;16.03;100.00
48652;BME280;34442;52.362;-1.302;2023-09-18T06:24:39;98643.59;;;16.02;100.00
48652;BME280;34442;52.362;-1.302;2023-09-18T06:27:05;98637.38;;;16.01;100.00
48652;BME280;34442;52.362;-1.302;2023-09-18T06:29:33;98636.28;;;16.02;100.00
48652;BME280;34442;52.362;-1.302;2023-09-18T06:31:59;98636.56;;;16.01;100.00
48652;BME280;34442;52.362;-1.302;2023-09-18T06:34:25;98625.44;;;16.02;100.00
48652;BME280;34442;52.362;-1.302;2023-09-18T06:36:54;98628.91;;;16.08;100.00
48652;BME280;34442;52.362;-1.302;2023-09-18T06:39:19;98638.66;;;16.09;100.00
48652;BME280;34442;52.362;-1.302;2023-09-18T06:41:47;98640.78;;;16.12;100.00
48652;BME280;34442;52.362;-1.302;2023-09-18T06:44:13;98639.91;;;16.17;100.00
48652;BME280;34442;52.362;-1.302;2023-09-18T06:46:38;98637.44;;;16.20;100.00
48652;BME280;34442;52.362;-1.302;2023-09-18T06:49:04;98639.59;;;16.23;100.00
48652;BME280;34442;52.362;-1.302;2023-09-18T06:51:33;98629.78;;;16.27;100.00
48652;BME280;34442;52.362;-1.302;2023-09-18T06:53:58;98630.28;;;16.34;100.00
48652;BME280;34442;52.362;-1.302;2023-09-18T06:56:24;98634.03;;;16.38;100.00
48652;BME280;34442;52.362;-1.302;2023-09-18T06:58:50;98628.84;;;16.42;100.00
48652;BME280;34442;52.362;-1.302;2023-09-18T07:01:20;98634.19;;;16.47;100.00
48652;BME280;34442;52.362;-1.302;2023-09-18T07:03:48;98627.66;;;16.48;100.00
48652;BME280;34442;52.362;-1.302;2023-09-18T07:06:14;98628.13;;;16.55;100.00
48652;BME280;34442;52.362;-1.302;2023-09-18T07:08:47;98631.88;;;16.59;100.00
48652;BME280;34442;52.362;-1.302;2023-09-18T07:11:14;98631.31;;;16.62;100.00
48652;BME280;34442;52.362;-1.302;2023-09-18T07:13:40;98639.66;;;16.66;100.00
48652;BME280;34442;52.362;-1.302;2023-09-18T07:16:06;98638.25;;;16.74;100.00
48652;BME280;34442;52.362;-1.302;2023-09-18T07:18:31;98634.09;;;16.81;100.00
48652;BME280;34442;52.362;-1.302;2023-09-18T07:20:57;98635.44;;;16.84;100.00
48652;BME280;34442;52.362;-1.302;2023-09-18T07:23:22;98634.09;;;16.81;100.00
48652;BME280;34442;52.362;-1.302;2023-09-18T07:25:48;98631.09;;;16.83;100.00
48652;BME280;34442;52.362;-1.302;2023-09-18T07:28:13;98629.19;;;16.83;100.00
48652;BME280;34442;52.362;-1.302;2023-09-18T07:30:46;98629.19;;;16.83;100.00
48652;BME280;34442;52.362;-1.302;2023-09-18T07:33:13;98624.84;;;16.82;100.00
48652;BME280;34442;52.362;-1.302;2023-09-18T07:35:46;98620.25;;;16.83;100.00
48652;BME280;34442;52.362;-1.302;2023-09-18T07:38:12;98614.84;;;16.78;100.00
48652;BME280;34442;52.362;-1.302;2023-09-18T07:40:37;98615.91;;;16.82;100.00
48652;BME280;34442;52.362;-1.302;2023-09-18T07:43:03;98608.56;;;16.82;100.00
48652;BME280;34442;52.362;-1.302;2023-09-18T07:45:29;98614.81;;;16.83;100.00
48652;BME280;34442;52.362;-1.302;2023-09-18T07:47:54;98607.47;;;16.83;100.00
48652;BME280;34442;52.362;-1.302;2023-09-18T07:50:19;98604.53;;;16.80;100.00
48652;BME280;34442;52.362;-1.302;2023-09-18T07:52:45;98603.44;;;16.81;100.00
48652;BME280;34442;52.362;-1.302;2023-09-18T07:55:10;98591.25;;;16.78;100.00
48652;BME280;34442;52.362;-1.302;2023-09-18T07:57:36;98602.16;;;16.73;100.00
48652;BME280;34442;52.362;-1.302;2023-09-18T08:00:05;98602.44;;;16.72;100.00
48652;BME280;34442;52.362;-1.302;2023-09-18T08:02:37;98613.06;;;16.68;100.00
48652;BME280;34442;52.362;-1.302;2023-09-18T08:05:04;98616.06;;;16.67;100.00
48652;BME280;34442;52.362;-1.302;2023-09-18T08:07:30;98617.69;;;16.68;100.00
48652;BME280;34442;52.362;-1.302;2023-09-18T08:09:56;98614.94;;;16.73;100.00
48652;BME280;34442;52.362;-1.302;2023-09-18T08:12:23;98613.97;;;16.82;100.00
48652;BME280;34442;52.362;-1.302;2023-09-18T08:14:48;98611.72;;;16.90;100.00
48652;BME280;34442;52.362;-1.302;2023-09-18T08:17:15;98610.56;;;16.96;100.00
48652;BME280;34442;52.362;-1.302;2023-09-18T08:19:41;98619.16;;;17.03;100.00
48652;BME280;34442;52.362;-1.302;2023-09-18T08:22:10;98602.06;;;17.02;100.00
48652;BME280;34442;52.362;-1.302;2023-09-18T08:24:40;98599.25;;;17.07;100.00
48652;BME280;34442;52.362;-1.302;2023-09-18T08:27:06;98596.03;;;17.05;100.00
48652;BME280;34442;52.362;-1.302;2023-09-18T08:29:31;98587.25;;;17.14;100.00
48652;BME280;34442;52.362;-1.302;2023-09-18T08:31:57;98583.50;;;17.28;100.00
48652;BME280;34442;52.362;-1.302;2023-09-18T08:34:22;98585.59;;;17.31;100.00
48652;BME280;34442;52.362;-1.302;2023-09-18T08:36:50;98590.16;;;17.36;100.00
48652;BME280;34442;52.362;-1.302;2023-09-18T08:39:16;98582.84;;;17.36;100.00
48652;BME280;34442;52.362;-1.302;2023-09-18T08:41:45;98592.00;;;17.41;100.00
48652;BME280;34442;52.362;-1.302;2023-09-18T08:44:14;98586.56;;;17.41;100.00
48652;BME280;34442;52.362;-1.302;2023-09-18T08:46:40;98582.75;;;17.42;100.00
48652;BME280;34442;52.362;-1.302;2023-09-18T08:49:06;98586.31;;;17.56;100.00
48652;BME280;34442;52.362;-1.302;2023-09-18T08:51:33;98574.72;;;17.50;100.00
48652;BME280;34442;52.362;-1.302;2023-09-18T08:54:04;98572.69;;;17.42;100.00
48652;BME280;34442;52.362;-1.302;2023-09-18T08:56:31;98576.72;;;17.45;100.00
48652;BME280;34442;52.362;-1.302;2023-09-18T08:58:56;98573.72;;;17.46;100.00
48652;BME280;34442;52.362;-1.302;2023-09-18T09:01:23;98570.47;;;17.44;100.00
48652;BME280;34442;52.362;-1.302;2023-09-18T09:03:48;98565.13;;;17.39;100.00
48652;BME280;34442;52.362;-1.302;2023-09-18T09:06:14;98570.28;;;17.41;100.00
48652;BME280;34442;52.362;-1.302;2023-09-18T09:08:42;98565.25;;;17.48;100.00
48652;BME280;34442;52.362;-1.302;2023-09-18T09:11:08;98556.03;;;17.49;100.00
48652;BME280;34442;52.362;-1.302;2023-09-18T09:13:34;98552.19;;;17.50;100.00
48652;BME280;34442;52.362;-1.302;2023-09-18T09:16:00;98550.28;;;17.50;100.00
48652;BME280;34442;52.362;-1.302;2023-09-18T09:18:28;98540.34;;;17.59;100.00
48652;BME280;34442;52.362;-1.302;2023-09-18T09:20:57;98543.69;;;17.70;100.00
48652;BME280;34442;52.362;-1.302;2023-09-18T09:23:27;98543.91;;;17.74;100.00
48652;BME280;34442;52.362;-1.302;2023-09-18T09:25:54;98540.34;;;17.73;100.00
48652;BME280;34442;52.362;-1.302;2023-09-18T09:28:32;98550.97;;;17.75;100.00
48652;BME280;34442;52.362;-1.302;2023-09-18T09:31:03;98549.41;;;17.69;100.00
48652;BME280;34442;52.362;-1.302;2023-09-18T09:33:29;98542.56;;;17.71;100.00
48652;BME280;34442;52.362;-1.302;2023-09-18T09:35:56;98553.81;;;17.83;100.00
48652;BME280;34442;52.362;-1.302;2023-09-18T09:38:28;98545.19;;;18.09;100.00
48652;BME280;34442;52.362;-1.302;2023-09-18T09:40:54;98547.91;;;18.09;100.00
48652;BME280;34442;52.362;-1.302;2023-09-18T09:43:20;98547.38;;;17.93;100.00
48652;BME280;34442;52.362;-1.302;2023-09-18T09:45:48;98544.75;;;17.88;100.00
48652;BME280;34442;52.362;-1.302;2023-09-18T09:48:14;98537.06;;;17.76;100.00
48652;BME280;34442;52.362;-1.302;2023-09-18T09:50:47;98530.69;;;17.67;100.00
48652;BME280;34442;52.362;-1.302;2023-09-18T09:53:14;98531.81;;;17.66;100.00
48652;BME280;34442;52.362;-1.302;2023-09-18T09:55:42;98528.56;;;17.64;100.00
48652;BME280;34442;52.362;-1.302;2023-09-18T09:58:09;98519.72;;;17.72;100.00
48652;BME280;34442;52.362;-1.302;2023-09-18T10:00:45;98521.50;;;17.96;100.00
48652;BME280;34442;52.362;-1.302;2023-09-18T10:03:14;98512.66;;;18.04;100.00
48652;BME280;34442;52.362;-1.302;2023-09-18T10:05:42;98516.88;;;18.10;100.00
48652;BME280;34442;52.362;-1.302;2023-09-18T10:10:51;98498.44;;;18.21;100.00
48652;BME280;34442;52.362;-1.302;2023-09-18T10:13:20;98505.91;;;18.29;100.00
48652;BME280;34442;52.362;-1.302;2023-09-18T10:15:48;98504.38;;;18.37;100.00
48652;BME280;34442;52.362;-1.302;2023-09-18T10:21:31;98510.59;;;18.51;100.00
48652;BME280;34442;52.362;-1.302;2023-09-18T10:24:23;98509.72;;;18.28;100.00
48652;BME280;34442;52.362;-1.302;2023-09-18T10:27:00;98507.50;;;18.16;100.00
48652;BME280;34442;52.362;-1.302;2023-09-18T10:29:30;98508.72;;;18.10;100.00
48652;BME280;34442;52.362;-1.302;2023-09-18T10:31:56;98507.09;;;18.09;100.00
48652;BME280;34442;52.362;-1.302;2023-09-18T10:34:23;98503.97;;;18.02;100.00
48652;BME280;34442;52.362;-1.302;2023-09-18T10:36:53;98500.34;;;17.93;100.00
48652;BME280;34442;52.362;-1.302;2023-09-18T10:39:20;98505.28;;;17.91;100.00
48652;BME280;34442;52.362;-1.302;2023-09-18T10:41:53;98500.34;;;17.79;100.00
48652;BME280;34442;52.362;-1.302;2023-09-18T10:44:19;98506.94;;;17.73;100.00
48652;BME280;34442;52.362;-1.302;2023-09-18T10:46:46;98515.22;;;17.81;100.00
48652;BME280;34442;52.362;-1.302;2023-09-18T10:49:11;98510.22;;;17.75;100.00
48652;BME280;34442;52.362;-1.302;2023-09-18T10:51:38;98517.81;;;17.73;100.00
48652;BME280;34442;52.362;-1.302;2023-09-18T10:54:11;98503.06;;;17.79;100.00
48652;BME280;34442;52.362;-1.302;2023-09-18T10:56:41;98508.72;;;17.82;100.00
48652;BME280;34442;52.362;-1.302;2023-09-18T10:59:07;98509.72;;;17.87;100.00
48652;BME280;34442;52.362;-1.302;2023-09-18T11:01:39;98511.44;;;17.82;100.00
48652;BME280;34442;52.362;-1.302;2023-09-18T11:04:06;98508.78;;;17.77;100.00
48652;BME280;34442;52.362;-1.302;2023-09-18T11:12:09;98509.00;;;17.48;100.00
48652;BME280;34442;52.362;-1.302;2023-09-18T11:14:56;98513.22;;;17.41;100.00
48652;BME280;34442;52.362;-1.302;2023-09-18T11:20:07;98517.41;;;17.33;100.00
48652;BME280;34442;52.362;-1.302;2023-09-18T11:25:30;98517.06;;;17.21;100.00
48652;BME280;34442;52.362;-1.302;2023-09-18T11:28:00;98514.38;;;17.21;100.00
48652;BME280;34442;52.362;-1.302;2023-09-18T11:30:28;98514.72;;;17.33;100.00
48652;BME280;34442;52.362;-1.302;2023-09-18T11:32:54;98510.19;;;17.42;100.00
48652;BME280;34442;52.362;-1.302;2023-09-18T11:35:21;98509.31;;;17.47;100.00
48652;BME280;34442;52.362;-1.302;2023-09-18T11:37:46;98512.56;;;17.63;100.00
48652;BME280;34442;52.362;-1.302;2023-09-18T11:40:32;98515.72;;;17.70;100.00
48652;BME280;34442;52.362;-1.302;2023-09-18T11:43:27;98520.03;;;17.71;100.00
48652;BME280;34442;52.362;-1.302;2023-09-18T11:45:58;98515.88;;;17.73;100.00
48652;BME280;34442;52.362;-1.302;2023-09-18T11:48:26;98520.41;;;17.64;100.00
48652;BME280;34442;52.362;-1.302;2023-09-18T11:50:55;98521.53;;;17.63;100.00
48652;BME280;34442;52.362;-1.302;2023-09-18T11:53:23;98517.78;;;17.59;100.00
48652;BME280;34442;52.362;-1.302;2023-09-18T11:55:49;98520.84;;;17.71;100.00
48652;BME280;34442;52.362;-1.302;2023-09-18T11:58:14;98522.00;;;17.65;100.00
48652;BME280;34442;52.362;-1.302;2023-09-18T12:00:43;98524.59;;;17.75;100.00
48652;BME280;34442;52.362;-1.302;2023-09-18T12:03:20;98525.03;;;17.82;100.00
48652;BME280;34442;52.362;-1.302;2023-09-18T12:05:57;98530.94;;;17.84;100.00
48652;BME280;34442;52.362;-1.302;2023-09-18T12:08:24;98529.56;;;17.87;100.00
48652;BME280;34442;52.362;-1.302;2023-09-18T12:10:54;98528.81;;;17.81;100.00
48652;BME280;34442;52.362;-1.302;2023-09-18T12:13:20;98529.34;;;17.83;100.00
48652;BME280;34442;52.362;-1.302;2023-09-18T12:15:48;98527.53;;;17.93;100.00
48652;BME280;34442;52.362;-1.302;2023-09-18T12:18:14;98532.69;;;18.08;100.00
48652;BME280;34442;52.362;-1.302;2023-09-18T12:20:47;98540.03;;;18.21;100.00
48652;BME280;34442;52.362;-1.302;2023-09-18T12:23:13;98534.59;;;18.07;100.00
48652;BME280;34442;52.362;-1.302;2023-09-18T12:25:39;98529.25;;;17.89;100.00
48652;BME280;34442;52.362;-1.302;2023-09-18T12:28:08;98535.22;;;17.72;100.00
48652;BME280;34442;52.362;-1.302;2023-09-18T12:30:36;98534.06;;;17.45;100.00
48652;BME280;34442;52.362;-1.302;2023-09-18T12:33:02;98543.78;;;17.32;100.00
48652;BME280;34442;52.362;-1.302;2023-09-18T12:35:29;98545.56;;;17.56;100.00
48652;BME280;34442;52.362;-1.302;2023-09-18T12:37:57;98544.66;;;17.60;100.00
48652;BME280;34442;52.362;-1.302;2023-09-18T12:40:28;98551.47;;;17.77;100.00
48652;BME280;34442;52.362;-1.302;2023-09-18T12:42:56;98557.28;;;17.70;100.00
48652;BME280;34442;52.362;-1.302;2023-09-18T12:45:25;98556.75;;;17.68;100.00
48652;BME280;34442;52.362;-1.302;2023-09-18T12:47:53;98562.06;;;17.59;100.00
48652;BME280;34442;52.362;-1.302;2023-09-18T12:50:19;98572.00;;;17.50;100.00
48652;BME280;34442;52.362;-1.302;2023-09-18T12:52:44;98565.22;;;17.34;100.00
48652;BME280;34442;52.362;-1.302;2023-09-18T12:55:26;98569.03;;;17.33;100.00
48652;BME280;34442;52.362;-1.302;2023-09-18T12:57:53;98582.31;;;17.34;100.00
48652;BME280;34442;52.362;-1.302;2023-09-18T13:00:22;98585.91;;;17.30;100.00